McAllen, TX (78501)

12:26 AM CST on January 26, 2015 (GMT -0600)
Whitewing | Change Station
CLOSE
Current Station
Personal Weather Station
Location: McAllen, TX
Elevation: 138 ft
Nearby Weather Stations

Elev 138 ft 26.23 °N, 98.24 °W | Updated 2 seconds ago

Clear
Clear
54.0 °F
Feels Like 54.0 °F
N
0.0
Wind Variable Wind from WSW
Gusts 0.0 mph

Today
High -- | Low -- °F
--% Chance of Precip.
Yesterday
High -- | Low -- °F
Precip. -- in
7:19 AM 6:11 PM
Waxing Crescent, 40% visible
Pressure 30.24 in
Visibility 10.0 miles
Clouds Clear
Dew Point 46 °F
Humidity 74%
Rainfall 0.00 in
Snow Depth Not available.
UV 0 out of 12
Pollen 8.00 out of 12
Air Quality Not available.
Flu Activity Not available.
METAR KMFE 260553Z AUTO 28003KT 10SM CLR 13/07 A3024 RMK AO2 SLP239 T01330067 10183 20133 402170067 50012

More Conditions Fewer Conditions

Pressure 30.24 in
Visibility 10.0 miles
Clouds Clear
Dew Point 46 °F
Humidity 74%
Rainfall 0.00 in
Snow Depth Not available.
UV 0 out of 12
Pollen 8.00 out of 12
Air Quality Not available.
Flu Activity Not available.
METAR KMFE 260553Z AUTO 28003KT 10SM CLR 13/07 A3024 RMK AO2 SLP239 T01330067 10183 20133 402170067 50012

More Conditions Fewer Conditions

10-Day Weather Forecast

Almanac

Astronomy

Jan. 26, 2015 Rise Set
Actual Time
Civil Twilight
Nautical Twilight
Astronomical Twilight
Moon
Length of Visible Light
Length of Day
Tomorrow will be .
, % of the Moon is Illuminated

Today's Extremes

State Highs State Lows

Community

WunderPhotos

Upload Photos

1,790,157 photos uploaded!

WunderBlogs® & News

Nearby

Air Quality

  Air Quality AQ Index Pollutant
Not available.

Snow Depth

Station Depth Elevation

Earthquake Activity

City Distance Mag. Time & Date
Minimum magnitude displayed is 2.5.

Coastal Water Temperatures

Place Temperature

Nearby Weather Stations